createdAt,value
2022-08-05T00:00:50.201Z,25.30
2022-08-05T00:03:19.421Z,25.30
2022-08-05T00:06:04.737Z,25.20
2022-08-05T00:08:37.579Z,25.10
2022-08-05T00:11:20.579Z,25.10
2022-08-05T00:13:57.003Z,25.10
2022-08-05T00:16:35.931Z,25.00
2022-08-05T00:19:14.524Z,25.00
2022-08-05T00:21:43.400Z,24.90
2022-08-05T00:24:16.103Z,24.90
2022-08-05T00:26:51.987Z,24.90
2022-08-05T00:29:22.845Z,24.90
2022-08-05T00:32:13.086Z,24.80
2022-08-05T00:35:04.160Z,24.80
2022-08-05T00:37:50.528Z,24.80
2022-08-05T00:40:27.977Z,24.70
2022-08-05T00:42:59.721Z,24.70
2022-08-05T00:45:43.168Z,24.70
2022-08-05T00:48:14.305Z,24.60
2022-08-05T00:50:46.047Z,24.60
2022-08-05T00:54:01.002Z,24.50
2022-08-05T00:56:07.811Z,24.50
2022-08-05T00:58:37.724Z,24.40
2022-08-05T01:01:08.833Z,24.40
2022-08-05T01:03:38.068Z,24.40
2022-08-05T01:06:14.259Z,24.30
2022-08-05T01:08:47.155Z,24.30
2022-08-05T01:11:24.284Z,24.20
2022-08-05T01:14:08.487Z,24.20
2022-08-05T01:16:50.035Z,24.20
2022-08-05T01:20:02.340Z,24.10
2022-08-05T01:22:53.168Z,24.10
2022-08-05T01:25:40.518Z,24.00
2022-08-05T01:28:25.785Z,24.00
2022-08-05T01:30:58.547Z,23.90
2022-08-05T01:33:35.553Z,23.90
2022-08-05T01:36:12.937Z,23.90
2022-08-05T01:38:48.338Z,23.80
2022-08-05T01:41:21.879Z,23.70
2022-08-05T01:43:53.546Z,23.70
2022-08-05T01:46:42.395Z,23.70
2022-08-05T01:49:24.075Z,23.60
2022-08-05T01:52:02.156Z,23.60
2022-08-05T01:54:52.069Z,23.50
2022-08-05T01:58:10.380Z,23.40
2022-08-05T02:00:17.873Z,23.40
2022-08-05T02:02:54.998Z,23.30
2022-08-05T02:05:36.036Z,23.30
2022-08-05T02:08:06.999Z,23.20
2022-08-05T02:10:43.916Z,23.20
2022-08-05T02:13:16.912Z,23.10
2022-08-05T02:15:51.612Z,23.00
2022-08-05T02:18:30.790Z,23.00
2022-08-05T02:21:14.633Z,23.00
2022-08-05T02:23:47.464Z,22.90
2022-08-05T02:26:23.269Z,22.80
2022-08-05T02:28:58.248Z,22.80
2022-08-05T02:31:34.893Z,22.80
2022-08-05T02:34:09.348Z,22.70
2022-08-05T02:36:43.718Z,22.70
2022-08-05T02:39:13.411Z,22.60
2022-08-05T02:42:00.412Z,22.60
2022-08-05T02:44:31.379Z,22.60
2022-08-05T02:47:02.054Z,22.50
2022-08-05T02:49:36.529Z,22.40
2022-08-05T02:52:11.317Z,22.40
2022-08-05T02:54:42.717Z,22.30
2022-08-05T02:58:11.928Z,22.30
2022-08-05T03:00:12.857Z,22.30
2022-08-05T03:02:45.342Z,22.20
2022-08-05T03:05:15.167Z,22.10
2022-08-05T03:08:06.828Z,22.10
2022-08-05T03:10:33.406Z,22.00
2022-08-05T03:15:29.309Z,22.00
2022-08-05T03:17:59.576Z,21.90
2022-08-05T03:20:28.163Z,21.90
2022-08-05T03:22:58.123Z,21.90
2022-08-05T03:25:33.343Z,21.80
2022-08-05T03:28:18.734Z,21.90
2022-08-05T03:30:49.707Z,21.90
2022-08-05T03:33:22.095Z,21.90
2022-08-05T03:35:52.874Z,21.90
2022-08-05T03:38:33.080Z,21.90
2022-08-05T03:41:08.508Z,21.90
2022-08-05T03:44:09.293Z,21.90
2022-08-05T03:46:30.036Z,22.00
2022-08-05T03:49:02.561Z,22.00
2022-08-05T03:52:48.514Z,22.10
2022-08-05T03:55:34.207Z,22.20
2022-08-05T03:57:29.257Z,22.30
2022-08-05T04:00:15.495Z,22.40
2022-08-05T04:02:57.568Z,22.50
2022-08-05T04:05:33.980Z,22.70
2022-08-05T04:08:14.594Z,22.80
2022-08-05T04:10:56.752Z,23.00
2022-08-05T04:13:27.751Z,23.20
2022-08-05T04:16:16.060Z,23.40
2022-08-05T04:18:54.856Z,23.70
2022-08-05T04:22:09.508Z,23.90
2022-08-05T04:24:19.464Z,24.10
2022-08-05T04:26:51.676Z,24.20
2022-08-05T04:29:20.604Z,24.40
2022-08-05T04:31:49.600Z,24.60
2022-08-05T04:34:32.820Z,24.90
2022-08-05T04:37:05.800Z,25.10
2022-08-05T04:39:35.365Z,25.40
2022-08-05T04:42:04.988Z,25.60
2022-08-05T04:44:33.712Z,25.80
2022-08-05T04:47:09.467Z,26.00
2022-08-05T04:50:02.599Z,26.10
2022-08-05T04:52:32.528Z,26.40
2022-08-05T04:55:05.332Z,26.50
2022-08-05T04:57:47.563Z,26.80
2022-08-05T05:00:17.614Z,27.00
2022-08-05T05:02:46.914Z,27.30
2022-08-05T05:05:16.669Z,27.50
2022-08-05T05:08:02.601Z,27.70
2022-08-05T05:10:33.327Z,28.00
2022-08-05T05:13:04.280Z,28.20
2022-08-05T05:15:57.320Z,28.30
2022-08-05T05:18:31.031Z,28.40
2022-08-05T05:21:03.143Z,28.50
2022-08-05T05:23:39.374Z,28.50
2022-08-05T05:26:28.513Z,28.60
2022-08-05T05:29:02.809Z,28.60
2022-08-05T05:31:43.354Z,28.80
2022-08-05T05:34:15.824Z,29.00
2022-08-05T05:36:47.182Z,29.20
2022-08-05T05:39:21.379Z,29.40
2022-08-05T05:41:54.455Z,29.50
2022-08-05T05:44:36.871Z,29.70
2022-08-05T05:47:23.581Z,29.80
2022-08-05T05:50:01.640Z,30.10
2022-08-05T05:52:34.691Z,30.40
2022-08-05T05:55:13.160Z,30.70
2022-08-05T05:57:52.962Z,31.00
2022-08-05T06:00:31.372Z,31.30
2022-08-05T06:03:03.362Z,31.60
2022-08-05T06:05:54.161Z,31.80
2022-08-05T06:08:32.487Z,32.10
2022-08-05T06:11:03.132Z,32.40
2022-08-05T06:13:40.716Z,32.70
2022-08-05T06:16:28.553Z,33.00
2022-08-05T06:19:01.138Z,33.10
2022-08-05T06:21:37.105Z,33.10
2022-08-05T06:24:11.273Z,33.20
2022-08-05T06:26:51.127Z,33.40
2022-08-05T06:29:25.559Z,33.50
2022-08-05T06:32:21.117Z,33.80
2022-08-05T06:34:56.605Z,34.10
2022-08-05T06:37:56.611Z,34.20
2022-08-05T06:40:18.512Z,34.30
2022-08-05T06:42:52.930Z,34.50
2022-08-05T06:46:03.080Z,34.80
2022-08-05T06:48:53.053Z,34.80
2022-08-05T06:51:00.059Z,34.80
2022-08-05T06:53:29.719Z,34.90
2022-08-05T06:55:59.705Z,35.00
2022-08-05T06:58:36.515Z,35.40
2022-08-05T07:01:07.146Z,35.70
2022-08-05T07:03:36.457Z,35.80
2022-08-05T07:06:14.244Z,35.90
2022-08-05T07:08:47.864Z,36.00
2022-08-05T07:11:22.568Z,36.20
2022-08-05T07:14:15.845Z,36.20
2022-08-05T07:18:08.589Z,36.40
2022-08-05T07:22:30.440Z,36.90
2022-08-05T07:25:23.980Z,37.00
2022-08-05T07:27:57.970Z,37.20
2022-08-05T07:30:34.451Z,37.40
2022-08-05T07:33:05.520Z,37.60
2022-08-05T07:36:04.849Z,37.80
2022-08-05T07:38:34.378Z,37.80
2022-08-05T07:41:35.007Z,37.90
2022-08-05T07:43:57.015Z,38.00
2022-08-05T07:46:29.187Z,38.20
2022-08-05T07:49:05.571Z,38.10
2022-08-05T07:51:40.740Z,38.10
2022-08-05T07:54:18.759Z,37.90
2022-08-05T07:57:01.894Z,37.90
2022-08-05T07:59:40.575Z,38.00
2022-08-05T08:02:16.134Z,38.20
2022-08-05T08:04:48.180Z,38.30
2022-08-05T08:07:23.048Z,38.40
2022-08-05T08:09:55.090Z,38.50
2022-08-05T08:12:36.959Z,38.50
2022-08-05T08:15:15.159Z,38.60
2022-08-05T08:17:52.895Z,38.70
2022-08-05T08:21:00.287Z,38.70
2022-08-05T08:24:02.263Z,38.90
2022-08-05T08:26:02.787Z,39.10
2022-08-05T08:28:36.335Z,39.10
2022-08-05T08:31:06.917Z,39.10
2022-08-05T08:33:38.189Z,39.10
2022-08-05T08:38:57.796Z,39.10
2022-08-05T08:41:50.679Z,39.20
2022-08-05T08:45:18.684Z,39.10
2022-08-05T08:47:47.626Z,39.20
2022-08-05T08:50:14.610Z,39.30
2022-08-05T08:52:55.875Z,39.20
2022-08-05T08:56:02.205Z,39.20
2022-08-05T08:58:16.395Z,39.10
2022-08-05T09:00:46.903Z,39.10
2022-08-05T09:03:19.165Z,39.00
2022-08-05T09:06:08.434Z,39.00
2022-08-05T09:08:40.506Z,39.00
2022-08-05T09:11:12.175Z,39.00
2022-08-05T09:14:10.026Z,38.90
2022-08-05T09:16:33.046Z,38.70
2022-08-05T09:19:01.794Z,38.20
2022-08-05T09:22:22.172Z,38.20
2022-08-05T09:24:25.748Z,38.10
2022-08-05T09:26:58.795Z,38.10
2022-08-05T09:29:47.618Z,38.20
2022-08-05T09:32:46.089Z,38.10
2022-08-05T09:35:26.641Z,38.00
2022-08-05T09:38:16.164Z,37.80
2022-08-05T09:40:52.302Z,37.70
2022-08-05T09:43:40.514Z,37.50
2022-08-05T09:46:27.508Z,37.30
2022-08-05T09:49:06.719Z,37.30
2022-08-05T09:51:39.892Z,37.40
2022-08-05T09:54:11.617Z,37.50
2022-08-05T09:56:52.274Z,37.60
2022-08-05T09:59:27.718Z,37.60
2022-08-05T10:01:58.184Z,37.50
2022-08-05T10:04:38.642Z,37.30
2022-08-05T10:07:20.134Z,37.10
2022-08-05T10:10:15.308Z,36.90
2022-08-05T10:12:49.200Z,36.70
2022-08-05T10:15:22.078Z,36.40
2022-08-05T10:18:10.435Z,36.30
2022-08-05T10:20:41.940Z,36.20
2022-08-05T10:23:34.091Z,36.00
2022-08-05T10:26:51.563Z,36.00
2022-08-05T10:28:56.534Z,36.00
2022-08-05T10:33:01.988Z,35.80
2022-08-05T10:34:14.454Z,35.80
2022-08-05T10:36:46.689Z,35.90
2022-08-05T10:39:24.455Z,36.00
2022-08-05T10:42:14.654Z,36.00
2022-08-05T10:44:47.729Z,36.10
2022-08-05T10:47:26.445Z,36.10
2022-08-05T10:50:20.669Z,36.10
2022-08-05T10:52:58.475Z,35.90
2022-08-05T10:55:28.671Z,35.80
2022-08-05T10:58:15.581Z,35.70
2022-08-05T11:00:55.455Z,35.50
2022-08-05T11:03:33.746Z,35.50
2022-08-05T11:06:08.555Z,35.40
2022-08-05T11:09:16.303Z,35.40
2022-08-05T11:11:53.369Z,35.40
2022-08-05T11:14:57.851Z,35.40
2022-08-05T11:17:59.654Z,35.40
2022-08-05T11:20:39.228Z,35.30
2022-08-05T11:24:03.250Z,35.30
2022-08-05T11:26:28.031Z,35.20
2022-08-05T11:29:12.291Z,35.20
2022-08-05T11:31:57.405Z,35.20
2022-08-05T11:34:51.080Z,35.10
2022-08-05T11:38:30.793Z,35.20
2022-08-05T11:41:34.527Z,35.30
2022-08-05T11:44:01.021Z,35.50
2022-08-05T11:47:09.937Z,35.50
2022-08-05T11:49:28.656Z,35.60
2022-08-05T11:51:57.894Z,35.70
2022-08-05T11:54:33.896Z,35.60
2022-08-05T11:57:08.142Z,35.70
2022-08-05T11:59:53.502Z,35.70
2022-08-05T12:02:31.721Z,35.80
2022-08-05T12:05:07.971Z,35.80
2022-08-05T12:08:08.458Z,35.80
2022-08-05T12:10:45.008Z,35.80
2022-08-05T12:13:18.703Z,35.70
2022-08-05T12:16:15.748Z,35.70
2022-08-05T12:18:53.144Z,35.80
2022-08-05T12:21:26.875Z,35.80
2022-08-05T12:24:05.428Z,35.80
2022-08-05T12:26:37.005Z,35.80
2022-08-05T12:29:09.601Z,35.70
2022-08-05T12:31:47.609Z,35.60
2022-08-05T12:34:26.829Z,35.60
2022-08-05T12:36:59.355Z,35.70
2022-08-05T12:39:34.510Z,35.70
2022-08-05T12:42:15.012Z,35.80
2022-08-05T12:44:47.378Z,35.90
2022-08-05T12:47:28.692Z,36.00
2022-08-05T12:50:03.508Z,36.10
2022-08-05T12:52:39.760Z,36.20
2022-08-05T12:55:23.841Z,36.20
2022-08-05T12:58:48.496Z,36.20
2022-08-05T13:02:02.921Z,36.10
2022-08-05T13:03:42.233Z,36.00
2022-08-05T13:06:17.198Z,36.00
2022-08-05T13:08:51.524Z,35.90
2022-08-05T13:12:01.517Z,35.80
2022-08-05T13:14:24.508Z,35.80
2022-08-05T13:16:56.833Z,35.70
2022-08-05T13:19:40.431Z,35.80
2022-08-05T13:22:28.351Z,35.80
2022-08-05T13:25:05.905Z,35.70
2022-08-05T13:27:40.352Z,35.60
2022-08-05T13:30:34.893Z,35.50
2022-08-05T13:33:01.089Z,35.40
2022-08-05T13:35:43.143Z,35.20
2022-08-05T13:38:28.214Z,35.00
2022-08-05T13:41:00.606Z,34.80
2022-08-05T13:43:44.093Z,34.60
2022-08-05T13:46:30.778Z,34.50
2022-08-05T13:49:10.093Z,34.40
2022-08-05T13:51:46.538Z,34.20
2022-08-05T13:54:21.233Z,34.10
2022-08-05T13:56:54.524Z,34.00
2022-08-05T13:59:27.427Z,33.80
2022-08-05T14:02:00.909Z,33.70
2022-08-05T14:04:51.172Z,33.80
2022-08-05T14:07:55.436Z,33.70
2022-08-05T14:10:13.014Z,33.60
2022-08-05T14:12:42.789Z,33.60
2022-08-05T14:16:05.346Z,33.60
2022-08-05T14:18:05.179Z,33.50
2022-08-05T14:20:34.075Z,33.50
2022-08-05T14:23:03.080Z,33.40
2022-08-05T14:25:32.066Z,33.40
2022-08-05T14:28:00.880Z,33.40
2022-08-05T14:30:30.966Z,33.40
2022-08-05T14:32:59.854Z,33.30
2022-08-05T14:35:36.873Z,33.30
2022-08-05T14:38:06.379Z,33.30
2022-08-05T14:40:55.049Z,33.30
2022-08-05T14:43:57.331Z,33.30
2022-08-05T14:46:13.983Z,33.30
2022-08-05T14:48:42.759Z,33.30
2022-08-05T14:51:11.310Z,33.30
2022-08-05T14:54:26.179Z,33.30
2022-08-05T14:56:35.670Z,33.30
2022-08-05T14:59:06.898Z,33.30
2022-08-05T15:01:49.007Z,33.30
2022-08-05T15:04:20.487Z,33.30
2022-08-05T15:06:51.483Z,33.30
2022-08-05T15:09:51.305Z,33.30
2022-08-05T15:12:11.513Z,33.30
2022-08-05T15:14:50.057Z,33.30
2022-08-05T15:17:46.685Z,33.30
2022-08-05T15:20:18.505Z,33.30
2022-08-05T15:22:54.060Z,33.30
2022-08-05T15:25:51.461Z,33.20
2022-08-05T15:28:14.383Z,33.20
2022-08-05T15:30:45.784Z,33.20
2022-08-05T15:34:05.113Z,33.10
2022-08-05T15:36:17.004Z,33.10
2022-08-05T15:41:02.516Z,33.00
2022-08-05T15:41:58.083Z,33.00
2022-08-05T15:44:29.986Z,33.00
2022-08-05T15:47:00.217Z,33.00
2022-08-05T15:49:42.223Z,33.00
2022-08-05T15:52:51.838Z,33.00
2022-08-05T15:55:10.449Z,33.10
2022-08-05T15:57:46.039Z,33.00
2022-08-05T16:00:26.057Z,33.10
2022-08-05T16:03:01.598Z,33.00
2022-08-05T16:05:35.029Z,33.00
2022-08-05T16:08:08.027Z,32.90
2022-08-05T16:10:36.764Z,32.90
2022-08-05T16:13:05.542Z,32.90
2022-08-05T16:15:34.277Z,32.90
2022-08-05T16:18:04.295Z,32.90
2022-08-05T16:20:39.177Z,32.80
2022-08-05T16:23:08.587Z,32.70
2022-08-05T16:25:38.031Z,32.70
2022-08-05T16:28:10.262Z,32.70
2022-08-05T16:30:39.246Z,32.70
2022-08-05T16:33:10.448Z,32.60
2022-08-05T16:35:42.163Z,32.60
2022-08-05T16:38:18.679Z,32.60
2022-08-05T16:40:55.391Z,32.50
2022-08-05T16:43:31.481Z,32.50
2022-08-05T16:46:04.377Z,32.40
2022-08-05T16:48:39.027Z,32.40
2022-08-05T16:51:10.749Z,32.40
2022-08-05T16:54:03.479Z,32.30
2022-08-05T16:56:31.348Z,32.30
2022-08-05T16:59:00.992Z,32.30
2022-08-05T17:01:53.650Z,32.20
2022-08-05T17:04:27.285Z,32.20
2022-08-05T17:07:01.262Z,32.10
2022-08-05T17:09:57.721Z,32.10
2022-08-05T17:12:22.465Z,32.10
2022-08-05T17:14:51.769Z,32.00
2022-08-05T17:17:20.420Z,31.90
2022-08-05T17:19:53.858Z,31.90
2022-08-05T17:22:26.122Z,31.80
2022-08-05T17:24:58.136Z,31.70
2022-08-05T17:27:33.922Z,31.70
2022-08-05T17:30:12.209Z,31.60
2022-08-05T17:32:48.031Z,31.50
2022-08-05T17:35:20.856Z,31.40
2022-08-05T17:37:51.386Z,31.30
2022-08-05T17:40:22.661Z,31.30
2022-08-05T17:42:53.528Z,31.20
2022-08-05T17:45:29.632Z,31.10
2022-08-05T17:48:08.918Z,31.10
2022-08-05T17:50:37.386Z,31.00
2022-08-05T17:53:08.730Z,30.90
2022-08-05T17:55:39.918Z,30.80
2022-08-05T17:58:14.575Z,30.70
2022-08-05T18:00:47.855Z,30.70
2022-08-05T18:06:11.455Z,30.50
2022-08-05T18:08:44.928Z,30.50
2022-08-05T18:11:24.277Z,30.40
2022-08-05T18:13:59.766Z,30.30
2022-08-05T18:16:29.232Z,30.20
2022-08-05T18:18:57.791Z,30.10
2022-08-05T18:22:08.892Z,29.90
2022-08-05T18:24:17.296Z,29.80
2022-08-05T18:26:46.436Z,29.60
2022-08-05T18:29:17.046Z,29.50
2022-08-05T18:31:45.865Z,29.30
2022-08-05T18:34:21.771Z,29.10
2022-08-05T18:36:50.546Z,29.00
2022-08-05T18:40:29.670Z,28.80
2022-08-05T18:42:12.647Z,28.80
2022-08-05T18:44:48.990Z,28.70
2022-08-05T18:47:22.633Z,28.50
2022-08-05T18:50:12.889Z,28.50
2022-08-05T18:52:50.898Z,28.40
2022-08-05T18:55:22.347Z,28.30
2022-08-05T18:57:52.992Z,28.30
2022-08-05T19:00:28.817Z,28.20
2022-08-05T19:03:04.157Z,28.10
2022-08-05T19:06:12.425Z,28.00
2022-08-05T19:08:30.157Z,27.90
2022-08-05T19:11:04.621Z,27.70
2022-08-05T19:13:36.850Z,27.50
2022-08-05T19:16:24.890Z,27.30
2022-08-05T19:18:57.182Z,27.00
2022-08-05T19:21:34.190Z,26.90
2022-08-05T19:24:08.965Z,26.70
2022-08-05T19:26:43.917Z,26.60
2022-08-05T19:29:26.769Z,26.50
2022-08-05T19:32:08.621Z,26.30
2022-08-05T19:34:40.425Z,26.20
2022-08-05T19:37:10.309Z,26.10
2022-08-05T19:39:45.628Z,26.10
2022-08-05T19:42:35.299Z,26.00
2022-08-05T19:45:07.222Z,26.00
2022-08-05T19:47:37.492Z,26.00
2022-08-05T19:50:10.530Z,26.00
2022-08-05T19:52:41.204Z,25.90
2022-08-05T19:56:14.451Z,25.90
2022-08-05T19:58:14.416Z,25.90
2022-08-05T20:00:49.917Z,25.80
2022-08-05T20:03:18.805Z,25.70
2022-08-05T20:05:50.123Z,25.70
2022-08-05T20:08:24.537Z,25.60
2022-08-05T20:10:53.637Z,25.60
2022-08-05T20:13:54.963Z,25.50
2022-08-05T20:16:12.989Z,25.40
2022-08-05T20:18:55.414Z,25.40
2022-08-05T20:21:25.702Z,25.40
2022-08-05T20:23:54.663Z,25.30
2022-08-05T20:26:25.863Z,25.20
2022-08-05T20:28:58.076Z,25.10
2022-08-05T20:31:43.010Z,25.10
2022-08-05T20:34:18.977Z,25.00
2022-08-05T20:36:48.862Z,24.90
2022-08-05T20:39:18.706Z,24.80
2022-08-05T20:41:48.244Z,24.80
2022-08-05T20:44:29.942Z,24.70
2022-08-05T20:47:01.326Z,24.60
2022-08-05T20:49:30.268Z,24.50
2022-08-05T20:52:07.228Z,24.40
2022-08-05T20:54:43.398Z,24.40
2022-08-05T20:57:43.963Z,24.30
2022-08-05T21:00:34.852Z,24.30
2022-08-05T21:03:08.195Z,24.30
2022-08-05T21:05:53.585Z,24.20
2022-08-05T21:08:26.610Z,24.20
2022-08-05T21:11:09.934Z,24.20
2022-08-05T21:13:47.882Z,24.20
2022-08-05T21:16:29.949Z,24.20
2022-08-05T21:18:59.822Z,24.10
2022-08-05T21:21:43.849Z,24.10
2022-08-05T21:24:19.589Z,24.10
2022-08-05T21:26:58.402Z,24.00
2022-08-05T21:29:32.015Z,24.00
2022-08-05T21:32:03.560Z,23.90
2022-08-05T21:34:33.105Z,23.90
2022-08-05T21:37:05.138Z,23.90
2022-08-05T21:39:34.475Z,23.90
2022-08-05T21:42:03.662Z,23.80
2022-08-05T21:44:32.802Z,23.90
2022-08-05T21:47:02.901Z,23.90
2022-08-05T21:49:56.892Z,23.80
2022-08-05T21:52:28.464Z,23.80
2022-08-05T21:55:06.450Z,23.80
2022-08-05T21:57:36.413Z,23.80
2022-08-05T22:00:13.043Z,23.80
2022-08-05T22:02:43.944Z,23.80
2022-08-05T22:05:14.497Z,23.80
2022-08-05T22:08:02.002Z,23.80
2022-08-05T22:10:31.283Z,23.60
2022-08-05T22:13:58.821Z,23.70
2022-08-05T22:16:01.060Z,23.70
2022-08-05T22:18:34.955Z,23.70
2022-08-05T22:21:11.209Z,23.60
2022-08-05T22:24:08.974Z,23.60
2022-08-05T22:26:59.254Z,23.60
2022-08-05T22:29:30.846Z,23.50
2022-08-05T22:32:02.867Z,23.50
2022-08-05T22:34:34.205Z,23.40
2022-08-05T22:37:05.021Z,23.40
2022-08-05T22:39:34.665Z,23.40
2022-08-05T22:42:10.916Z,23.40
2022-08-05T22:44:48.401Z,23.30
2022-08-05T22:47:29.752Z,23.30
2022-08-05T22:50:19.732Z,23.20
2022-08-05T22:52:52.457Z,23.20
2022-08-05T22:55:22.221Z,23.20
2022-08-05T22:57:51.461Z,23.10
2022-08-05T23:00:22.514Z,23.10
2022-08-05T23:02:53.629Z,23.00
2022-08-05T23:05:24.657Z,23.00
2022-08-05T23:07:53.865Z,23.00
2022-08-05T23:10:24.422Z,22.90
2022-08-05T23:12:55.743Z,22.90
2022-08-05T23:15:26.956Z,22.80
2022-08-05T23:18:00.944Z,22.90
2022-08-05T23:20:37.525Z,22.80
2022-08-05T23:23:08.713Z,22.80
2022-08-05T23:25:54.985Z,22.80
2022-08-05T23:28:28.753Z,22.70
2022-08-05T23:31:02.224Z,22.70
2022-08-05T23:34:03.304Z,22.70
2022-08-05T23:36:38.608Z,22.70
2022-08-05T23:39:09.259Z,22.60
2022-08-05T23:41:40.940Z,22.60
2022-08-05T23:44:09.791Z,22.60
2022-08-05T23:46:39.346Z,22.60
2022-08-05T23:49:16.878Z,22.50
2022-08-05T23:52:09.622Z,22.50
2022-08-05T23:54:38.836Z,22.50
2022-08-05T23:57:08.541Z,22.50
